Time;durP1;ratioP1;P1;durP2;ratioP2;P2;SDS_P1;SDS_P2;PMS_P1;PMS_P2;Temp;Humidity;BMP_temperature;BMP_pressure;BME280_temperature;BME280_humidity;BME280_pressure;Samples;Min_cycle;Max_cycle;Signal;HPM_P1;HPM_P2
2021/12/23 00:00:37;;;;;;;0.45;0.45;;;-3.00;99.90;;;;;;5077051;28;20028;-46
2021/12/23 00:03:03;;;;;;;0.35;0.35;;;-2.90;99.90;;;;;;5077041;28;20031;-49
2021/12/23 00:05:29;;;;;;;0.00;0.00;;;-2.90;99.90;;;;;;5076379;28;20040;-45
2021/12/23 00:07:55;;;;;;;1.05;0.95;;;-2.90;99.90;;;;;;5076879;28;20037;-46
2021/12/23 00:10:20;;;;;;;0.00;0.00;;;-2.90;99.90;;;;;;5076864;28;20483;-51
2021/12/23 00:12:47;;;;;;;0.00;0.00;;;-2.80;99.90;;;;;;5076710;28;20031;-45
2021/12/23 00:15:27;;;;;;;0.00;0.00;;;-2.90;99.90;;;;;;5076695;28;20367;-46
2021/12/23 00:25:36;;;;;;;0.00;0.00;;;-3.10;99.90;;;;;;5076475;28;20487;-48
2021/12/23 00:28:03;;;;;;;0.50;0.50;;;-3.20;99.90;;;;;;5076638;28;20029;-47
2021/12/23 00:30:29;;;;;;;5.47;0.55;;;-3.20;99.90;;;;;;5076541;28;20047;-48
2021/12/23 00:32:56;;;;;;;0.00;0.00;;;-3.20;99.90;;;;;;5076521;28;20436;-50
2021/12/23 00:35:23;;;;;;;2.65;2.45;;;-3.20;99.90;;;;;;5076391;28;20028;-48
2021/12/23 00:37:55;;;;;;;0.47;0.35;;;-3.10;99.90;;;;;;5076133;28;20473;-46
2021/12/23 00:40:21;;;;;;;0.00;0.00;;;-3.10;99.90;;;;;;5076503;28;20417;-49
2021/12/23 00:42:46;;;;;;;0.15;0.15;;;-3.10;99.90;;;;;;5076337;28;20077;-50
2021/12/23 00:45:12;;;;;;;4.30;0.95;;;-3.00;99.90;;;;;;5076206;28;20020;-49
2021/12/23 00:47:37;;;;;;;0.28;0.28;;;-2.90;99.90;;;;;;5076039;28;20086;-48
2021/12/23 00:50:04;;;;;;;0.00;0.00;;;-3.00;99.90;;;;;;5074894;28;20029;-47
2021/12/23 00:52:34;;;;;;;2.30;1.85;;;-3.20;99.90;;;;;;5076423;28;20028;-47
2021/12/23 00:55:00;;;;;;;0.00;0.00;;;-3.20;99.90;;;;;;5075945;28;20056;-49
2021/12/23 00:57:28;;;;;;;0.00;0.00;;;-3.30;99.90;;;;;;5074852;28;20119;-50
2021/12/23 00:59:55;;;;;;;0.00;0.00;;;-3.20;99.90;;;;;;5075824;28;20033;-49
2021/12/23 01:02:28;;;;;;;0.00;0.00;;;-3.20;99.90;;;;;;5075656;28;20451;-47
2021/12/23 01:04:54;;;;;;;0.00;0.00;;;-3.30;99.90;;;;;;5075923;28;20398;-46
2021/12/23 01:07:20;;;;;;;0.00;0.00;;;-3.20;99.90;;;;;;5076161;28;20037;-50
2021/12/23 01:09:45;;;;;;;0.00;0.00;;;-3.20;99.90;;;;;;5075431;28;20099;-45
2021/12/23 01:12:13;;;;;;;0.00;0.00;;;-3.40;99.90;;;;;;5075360;28;20046;-47
2021/12/23 01:14:54;;;;;;;0.00;0.00;;;-3.30;99.90;;;;;;5075896;28;20383;-46
2021/12/23 01:19:52;;;;;;;0.20;0.20;;;-3.10;99.90;;;;;;5075686;28;20031;-45
2021/12/23 01:22:19;;;;;;;0.73;0.73;;;-3.00;99.90;;;;;;5076008;28;20375;-45
2021/12/23 01:24:46;;;;;;;0.10;0.10;;;-2.90;99.90;;;;;;5075469;28;20074;-49
2021/12/23 01:27:12;;;;;;;0.08;0.08;;;-2.90;99.90;;;;;;5075187;28;20047;-47
2021/12/23 01:29:37;;;;;;;0.10;0.10;;;-2.90;99.90;;;;;;5075533;28;20107;-47
2021/12/23 01:32:05;;;;;;;1.08;1.02;;;-3.00;99.90;;;;;;5075445;28;20070;-46
2021/12/23 01:34:33;;;;;;;0.00;0.00;;;-3.00;99.90;;;;;;5075502;28;20108;-48
2021/12/23 01:37:00;;;;;;;0.10;0.10;;;-3.00;99.90;;;;;;5075316;28;20032;-47
2021/12/23 01:39:26;;;;;;;6.32;1.65;;;-3.00;99.90;;;;;;5075265;28;20417;-45
2021/12/23 01:41:52;;;;;;;0.00;0.00;;;-3.00;99.90;;;;;;5075538;28;20104;-46
2021/12/23 01:44:17;;;;;;;3.65;1.67;;;-3.10;99.90;;;;;;5074872;28;20383;-47
2021/12/23 01:46:43;;;;;;;0.00;0.00;;;-3.20;99.90;;;;;;5074965;28;20032;-49
2021/12/23 01:49:09;;;;;;;0.32;0.30;;;-3.20;99.90;;;;;;5075085;28;20024;-45
2021/12/23 01:51:35;;;;;;;2.78;1.17;;;-3.20;99.90;;;;;;5074972;28;20025;-47
2021/12/23 01:54:01;;;;;;;1.88;1.75;;;-3.10;99.90;;;;;;5074942;28;20021;-47
2021/12/23 01:56:27;;;;;;;7.03;2.08;;;-3.10;99.90;;;;;;5074619;28;20039;-48
2021/12/23 01:58:53;;;;;;;0.00;0.00;;;-3.10;99.90;;;;;;5074654;28;20082;-47
2021/12/23 02:01:19;;;;;;;0.00;0.00;;;-3.10;99.90;;;;;;5074855;28;20398;-49
2021/12/23 02:03:45;;;;;;;0.77;0.77;;;-3.10;99.90;;;;;;5074286;28;20028;-50
2021/12/23 02:06:10;;;;;;;0.10;0.10;;;-3.20;99.90;;;;;;5107557;27;20028;-48
2021/12/23 02:08:38;;;;;;;0.00;0.00;;;-3.10;99.90;;;;;;5074360;28;20031;-47
2021/12/23 02:11:05;;;;;;;0.00;0.00;;;-3.10;99.90;;;;;;5073420;28;20029;-48
2021/12/23 02:13:31;;;;;;;0.00;0.00;;;-3.10;99.90;;;;;;5074824;28;20031;-46
2021/12/23 02:15:57;;;;;;;1.75;1.55;;;-3.10;99.90;;;;;;5074655;28;20142;-47
2021/12/23 02:18:24;;;;;;;0.00;0.00;;;-3.10;99.90;;;;;;5074220;28;20538;-47
2021/12/23 02:20:50;;;;;;;0.00;0.00;;;-3.10;99.90;;;;;;5074195;28;20391;-46
2021/12/23 02:23:16;;;;;;;0.00;0.00;;;-3.00;99.90;;;;;;5073186;28;20028;-47
2021/12/23 02:25:42;;;;;;;0.00;0.00;;;-3.00;99.90;;;;;;5074103;28;20468;-46
2021/12/23 02:28:08;;;;;;;0.00;0.00;;;-3.00;99.90;;;;;;5073021;28;20028;-50
2021/12/23 02:30:36;;;;;;;0.15;0.15;;;-3.00;99.90;;;;;;5074292;28;20111;-50
2021/12/23 02:33:03;;;;;;;0.45;0.45;;;-3.20;99.90;;;;;;5074277;28;20021;-45
2021/12/23 02:35:29;;;;;;;3.08;2.88;;;-3.20;99.90;;;;;;5073945;28;20475;-48
2021/12/23 02:37:55;;;;;;;0.77;0.28;;;-3.20;99.90;;;;;;5073899;28;20035;-48
2021/12/23 02:40:31;;;;;;;0.10;0.10;;;-3.20;99.90;;;;;;5073895;28;20024;-48
2021/12/23 02:43:07;;;;;;;0.00;0.00;;;-3.10;99.90;;;;;;5073832;28;20432;-46
2021/12/23 02:45:32;;;;;;;0.00;0.00;;;-3.10;99.90;;;;;;5072787;28;20040;-47
2021/12/23 02:47:58;;;;;;;7.20;4.13;;;-3.20;99.90;;;;;;5074013;28;20453;-45
2021/12/23 02:50:24;;;;;;;0.00;0.00;;;-3.20;99.90;;;;;;5073764;28;20086;-50
2021/12/23 02:52:49;;;;;;;3.00;1.27;;;-3.10;99.90;;;;;;5073989;28;20086;-49
2021/12/23 02:55:18;;;;;;;2.45;2.28;;;-3.10;99.90;;;;;;5073619;28;20024;-48
2021/12/23 02:57:43;;;;;;;0.00;0.00;;;-3.10;99.90;;;;;;5073946;28;20025;-47
2021/12/23 03:00:09;;;;;;;0.00;0.00;;;-3.10;99.90;;;;;;5073851;28;20031;-47
2021/12/23 03:02:38;;;;;;;0.00;0.00;;;-3.00;99.90;;;;;;5073613;28;20024;-45
2021/12/23 03:05:05;;;;;;;27.40;24.85;;;-3.00;99.90;;;;;;5073333;28;20444;-47
2021/12/23 03:07:30;;;;;;;1.10;0.50;;;-3.00;99.90;;;;;;5073442;28;20364;-46
2021/12/23 03:09:56;;;;;;;1.55;0.77;;;-2.90;99.90;;;;;;5073673;28;20029;-47
2021/12/23 03:12:22;;;;;;;2.45;0.88;;;-3.00;99.90;;;;;;5073654;28;20031;-46
2021/12/23 03:14:47;;;;;;;2.30;1.55;;;-3.00;99.90;;;;;;5073314;28;20021;-49
2021/12/23 03:17:13;;;;;;;1.33;1.17;;;-3.00;99.90;;;;;;5073687;28;20506;-46
2021/12/23 03:19:39;;;;;;;0.93;0.93;;;-3.10;99.90;;;;;;5073881;28;20095;-45
2021/12/23 03:22:04;;;;;;;0.00;0.00;;;-3.10;99.90;;;;;;5073717;28;20033;-47
2021/12/23 03:24:30;;;;;;;0.00;0.00;;;-3.20;99.90;;;;;;5073361;28;20387;-48
2021/12/23 03:26:56;;;;;;;0.00;0.00;;;-3.20;99.90;;;;;;5073525;28;20032;-51
2021/12/23 03:29:21;;;;;;;0.00;0.00;;;-3.20;99.90;;;;;;5073557;28;20034;-47
2021/12/23 03:31:47;;;;;;;0.00;0.00;;;-3.10;99.90;;;;;;5073566;28;20460;-50
2021/12/23 03:34:13;;;;;;;0.00;0.00;;;-3.20;99.90;;;;;;5074505;28;20124;-45
2021/12/23 03:36:39;;;;;;;0.00;0.00;;;-3.20;99.90;;;;;;5077672;28;20067;-45
2021/12/23 03:39:05;;;;;;;0.00;0.00;;;-3.20;99.90;;;;;;5077359;28;20017;-45
2021/12/23 03:41:30;;;;;;;1.35;1.25;;;-3.10;99.90;;;;;;5077561;28;20470;-48
2021/12/23 03:43:56;;;;;;;2.53;2.35;;;-3.20;99.90;;;;;;5077286;28;20467;-47
2021/12/23 03:46:22;;;;;;;0.00;0.00;;;-3.20;99.90;;;;;;5077420;28;20028;-52
2021/12/23 03:48:48;;;;;;;0.00;0.00;;;-3.20;99.90;;;;;;5088292;28;20039;-52
2021/12/23 03:51:14;;;;;;;0.00;0.00;;;-3.20;99.90;;;;;;5095737;28;20024;-48
2021/12/23 03:53:39;;;;;;;0.00;0.00;;;-3.20;99.90;;;;;;5086062;28;20028;-49
2021/12/23 03:56:05;;;;;;;0.00;0.00;;;-3.20;99.90;;;;;;5078540;28;20081;-48
2021/12/23 03:58:31;;;;;;;0.00;0.00;;;-3.20;99.90;;;;;;5076897;28;20024;-46
2021/12/23 04:00:57;;;;;;;0.00;0.00;;;-3.20;99.90;;;;;;5077228;28;20032;-45
2021/12/23 04:03:22;;;;;;;0.00;0.00;;;-3.10;99.90;;;;;;5076790;28;20027;-45
2021/12/23 04:05:48;;;;;;;0.00;0.00;;;-3.20;99.90;;;;;;5080918;28;20114;-47
2021/12/23 04:08:14;;;;;;;0.00;0.00;;;-3.20;99.90;;;;;;5080363;28;20035;-48
2021/12/23 04:10:39;;;;;;;0.20;0.20;;;-3.20;99.90;;;;;;5076877;28;20447;-48
2021/12/23 04:13:05;;;;;;;0.00;0.00;;;-3.20;99.90;;;;;;5076519;28;20545;-48
2021/12/23 04:15:31;;;;;;;0.00;0.00;;;-3.30;99.90;;;;;;5076819;28;20044;-46
2021/12/23 04:17:57;;;;;;;0.00;0.00;;;-3.30;99.90;;;;;;5075487;28;20036;-46
2021/12/23 04:20:30;;;;;;;1.15;1.15;;;-3.30;99.90;;;;;;5075566;28;20025;-47
2021/12/23 04:22:56;;;;;;;0.60;0.60;;;-3.30;99.90;;;;;;5073235;28;20436;-48
2021/12/23 04:25:24;;;;;;;0.00;0.00;;;-3.20;99.90;;;;;;5084444;28;20052;-48
2021/12/23 04:27:53;;;;;;;0.00;0.00;;;-3.20;99.90;;;;;;5096588;28;20032;-47
2021/12/23 04:30:21;;;;;;;0.00;0.00;;;-3.30;99.90;;;;;;5080516;28;20024;-46
2021/12/23 04:32:46;;;;;;;0.00;0.00;;;-3.30;99.90;;;;;;5071431;28;20107;-48
2021/12/23 04:35:13;;;;;;;0.00;0.00;;;-3.30;99.90;;;;;;5089380;28;20107;-47
2021/12/23 04:37:39;;;;;;;0.38;0.38;;;-3.20;99.90;;;;;;5096986;28;20025;-47
2021/12/23 04:40:08;;;;;;;0.00;0.00;;;-3.30;99.90;;;;;;5076078;28;20024;-45
2021/12/23 04:42:34;;;;;;;0.00;0.00;;;-3.30;99.90;;;;;;5076236;28;20028;-46
2021/12/23 04:44:59;;;;;;;0.00;0.00;;;-3.30;99.90;;;;;;5074928;28;20482;-47
2021/12/23 04:47:25;;;;;;;1.55;1.45;;;-3.30;99.90;;;;;;5075847;28;20033;-47
2021/12/23 04:49:51;;;;;;;0.00;0.00;;;-3.30;99.90;;;;;;5075432;28;20020;-50
2021/12/23 04:52:16;;;;;;;0.38;0.22;;;-3.20;99.90;;;;;;5083459;28;20056;-49
2021/12/23 04:54:42;;;;;;;0.00;0.00;;;-3.20;99.90;;;;;;5081205;28;20027;-49
2021/12/23 04:57:07;;;;;;;0.32;0.32;;;-3.30;99.90;;;;;;5094882;28;20106;-49
2021/12/23 04:59:33;;;;;;;0.00;0.00;;;-3.30;99.90;;;;;;5066196;28;20028;-47
2021/12/23 05:01:59;;;;;;;1.77;1.67;;;-3.30;99.90;;;;;;5075800;28;20022;-47
2021/12/23 05:04:25;;;;;;;0.00;0.00;;;-3.30;99.90;;;;;;5086116;28;20126;-48
2021/12/23 05:06:50;;;;;;;0.00;0.00;;;-3.30;99.90;;;;;;5093763;28;20335;-50
2021/12/23 05:09:16;;;;;;;0.00;0.00;;;-3.30;99.90;;;;;;5094344;28;20024;-50
2021/12/23 05:11:44;;;;;;;0.15;0.15;;;-3.30;99.90;;;;;;5092460;28;20078;-46
2021/12/23 05:14:10;;;;;;;0.00;0.00;;;-3.30;99.90;;;;;;5093796;28;20107;-47
2021/12/23 05:16:36;;;;;;;2.17;1.98;;;-3.40;99.90;;;;;;5093469;28;20032;-47
2021/12/23 05:19:01;;;;;;;0.00;0.00;;;-3.40;99.90;;;;;;5094007;28;20081;-45
2021/12/23 05:21:27;;;;;;;2.42;2.05;;;-3.40;99.90;;;;;;5093339;28;20024;-46
2021/12/23 05:23:53;;;;;;;0.00;0.00;;;-3.30;99.90;;;;;;5095456;28;20032;-44
2021/12/23 05:26:18;;;;;;;0.52;0.52;;;-3.50;99.90;;;;;;5094426;28;20067;-45
2021/12/23 05:28:44;;;;;;;0.00;0.00;;;-3.50;99.90;;;;;;5095527;28;20028;-46
2021/12/23 05:31:10;;;;;;;0.00;0.00;;;-3.50;99.90;;;;;;5095521;28;20454;-47
2021/12/23 05:33:35;;;;;;;0.80;0.75;;;-3.60;99.90;;;;;;5094977;28;20028;-46
2021/12/23 05:36:02;;;;;;;0.00;0.00;;;-3.60;99.90;;;;;;5095403;28;20181;-46
2021/12/23 05:38:27;;;;;;;0.00;0.00;;;-3.60;99.90;;;;;;5095461;28;20020;-45
2021/12/23 05:40:53;;;;;;;5.93;2.13;;;-3.50;99.90;;;;;;5094013;28;20028;-45
2021/12/23 05:43:19;;;;;;;2.83;1.95;;;-3.50;99.90;;;;;;5094699;28;20058;-45
2021/12/23 05:45:45;;;;;;;0.00;0.00;;;-3.50;99.90;;;;;;5094995;28;20459;-46
2021/12/23 05:48:10;;;;;;;0.00;0.00;;;-3.50;99.90;;;;;;5093852;28;20024;-47
2021/12/23 05:50:36;;;;;;;0.25;0.22;;;-3.40;99.90;;;;;;5095296;28;20020;-46
2021/12/23 05:53:02;;;;;;;1.50;1.40;;;-3.40;99.90;;;;;;5095123;28;20056;-46
2021/12/23 05:55:28;;;;;;;1.08;1.08;;;-3.40;99.90;;;;;;5095018;28;20040;-46
2021/12/23 05:57:54;;;;;;;0.88;0.85;;;-3.60;99.90;;;;;;5092811;28;20024;-48
2021/12/23 06:00:25;;;;;;;2.72;1.65;;;-3.80;99.90;;;;;;5094396;28;20077;-47
2021/12/23 06:02:51;;;;;;;;;;;-3.90;99.90;;;;;;5095116;28;20023;-48
2021/12/23 06:05:17;;;;;;;0.00;0.00;;;-4.00;99.90;;;;;;5094642;28;19916;-47
2021/12/23 06:07:43;;;;;;;0.00;0.00;;;-3.80;99.90;;;;;;5094888;28;20039;-46
2021/12/23 06:10:09;;;;;;;0.85;0.85;;;-3.70;99.90;;;;;;5094606;28;20031;-48
2021/12/23 06:12:35;;;;;;;2.10;2.00;;;-3.60;99.90;;;;;;5094703;28;20028;-48
2021/12/23 06:15:01;;;;;;;0.57;0.57;;;-3.60;99.90;;;;;;5080315;28;20385;-46
2021/12/23 06:17:26;;;;;;;6.13;1.52;;;-3.50;99.90;;;;;;5071231;28;20126;-49
2021/12/23 06:19:52;;;;;;;0.05;0.05;;;-3.60;99.90;;;;;;5054089;28;20035;-46
2021/12/23 06:22:18;;;;;;;0.00;0.00;;;-3.80;99.90;;;;;;5054158;28;20096;-48
2021/12/23 06:24:47;;;;;;;0.22;0.22;;;-3.80;99.90;;;;;;5070101;28;20029;-48
2021/12/23 06:27:14;;;;;;;1.88;1.27;;;-4.00;99.90;;;;;;5073918;28;20025;-48
2021/12/23 06:29:39;;;;;;;0.65;0.65;;;-4.10;99.90;;;;;;5073124;28;20108;-48
2021/12/23 06:32:05;;;;;;;0.00;0.00;;;-4.10;99.90;;;;;;5065929;28;20116;-46
2021/12/23 06:34:31;;;;;;;0.00;0.00;;;-4.10;99.90;;;;;;5080243;28;20095;-50
2021/12/23 06:36:57;;;;;;;0.57;0.57;;;-4.00;99.90;;;;;;5063635;28;20025;-51
2021/12/23 06:39:22;;;;;;;2.30;2.10;;;-3.90;99.90;;;;;;5068636;28;20533;-46
2021/12/23 06:41:48;;;;;;;0.00;0.00;;;-3.90;99.90;;;;;;5089212;28;20099;-49
2021/12/23 06:44:15;;;;;;;0.00;0.00;;;-3.90;99.90;;;;;;5066060;28;20029;-45
2021/12/23 06:46:40;;;;;;;0.00;0.00;;;-3.90;99.90;;;;;;5051502;28;20033;-45
2021/12/23 06:49:06;;;;;;;0.00;0.00;;;-4.00;99.90;;;;;;5051670;28;20051;-49
2021/12/23 06:51:32;;;;;;;0.40;0.40;;;-4.00;99.90;;;;;;5053162;28;20426;-49
2021/12/23 06:53:59;;;;;;;0.00;0.00;;;-4.00;99.90;;;;;;5053032;28;20091;-48
2021/12/23 06:56:25;;;;;;;0.00;0.00;;;-3.80;99.90;;;;;;5053176;28;20391;-49
2021/12/23 06:58:51;;;;;;;0.00;0.00;;;-3.90;99.90;;;;;;5053321;28;20021;-47
2021/12/23 07:01:18;;;;;;;0.65;0.65;;;-3.80;99.90;;;;;;5052811;28;20032;-48
2021/12/23 07:06:37;;;;;;;0.15;0.15;;;-3.80;99.90;;;;;;5053099;28;20109;-47
2021/12/23 07:09:05;;;;;;;0.00;0.00;;;-3.80;99.90;;;;;;5052307;28;20475;-50
2021/12/23 07:11:32;;;;;;;0.00;0.00;;;-3.80;99.90;;;;;;5053154;28;20036;-46
2021/12/23 07:13:57;;;;;;;0.00;0.00;;;-3.90;99.90;;;;;;5053008;28;20067;-48
2021/12/23 07:16:23;;;;;;;5.05;0.88;;;-4.00;99.90;;;;;;5052878;28;20479;-46
2021/12/23 07:18:49;;;;;;;5.55;2.05;;;-3.70;99.90;;;;;;5052256;28;20028;-49
2021/12/23 07:21:15;;;;;;;1.85;1.65;;;-3.60;99.90;;;;;;5052390;28;20029;-47
2021/12/23 07:23:40;;;;;;;0.00;0.00;;;-3.60;99.90;;;;;;5052981;28;20024;-47
2021/12/23 07:26:06;;;;;;;1.65;1.55;;;-3.60;99.90;;;;;;5052654;28;20033;-47
2021/12/23 07:28:31;;;;;;;9.95;4.95;;;-3.60;99.90;;;;;;5052901;28;20456;-48
2021/12/23 07:30:57;;;;;;;7.15;3.13;;;-3.80;99.90;;;;;;5053069;28;20037;-47
2021/12/23 07:33:23;;;;;;;2.85;2.63;;;-4.00;99.90;;;;;;5052704;28;20033;-48
2021/12/23 07:35:48;;;;;;;0.10;0.10;;;-4.00;99.90;;;;;;5052565;28;20032;-49
2021/12/23 07:38:15;;;;;;;1.40;0.90;;;-3.90;99.90;;;;;;5051382;28;20091;-45
2021/12/23 07:40:41;;;;;;;0.00;0.00;;;-4.00;99.90;;;;;;5052162;28;20029;-46
2021/12/23 07:43:57;;;;;;;7.25;3.47;;;-3.80;99.90;;;;;;5052678;28;20052;-48
2021/12/23 07:45:56;;;;;;;1.67;0.47;;;-3.90;99.90;;;;;;5049268;28;20128;-48
2021/12/23 07:48:22;;;;;;;4.38;2.33;;;-3.70;99.90;;;;;;5052356;28;20060;-46
2021/12/23 07:50:48;;;;;;;2.85;1.90;;;-3.70;99.90;;;;;;5052155;28;20100;-48
2021/12/23 07:53:13;;;;;;;1.48;1.30;;;-3.60;99.90;;;;;;5052519;28;20357;-45
2021/12/23 07:55:42;;;;;;;1.08;0.80;;;-3.60;99.90;;;;;;5053062;28;20288;-47
2021/12/23 07:58:08;;;;;;;0.00;0.00;;;-3.60;99.90;;;;;;5052725;28;20025;-49
2021/12/23 08:00:34;;;;;;;0.25;0.25;;;-3.40;99.90;;;;;;5052053;28;20055;-48
2021/12/23 08:03:00;;;;;;;0.00;0.00;;;-3.00;99.90;;;;;;5051026;28;20428;-46
2021/12/23 08:05:26;;;;;;;0.00;0.00;;;-2.80;99.90;;;;;;5052221;28;20053;-48
2021/12/23 08:07:54;;;;;;;0.00;0.00;;;-2.50;99.90;;;;;;5052860;28;20025;-49
2021/12/23 08:10:19;;;;;;;0.00;0.00;;;-2.30;99.90;;;;;;5052863;28;20036;-49
2021/12/23 08:12:45;;;;;;;0.00;0.00;;;-2.20;99.90;;;;;;5051135;28;20025;-46
2021/12/23 08:15:11;;;;;;;0.00;0.00;;;-2.00;99.90;;;;;;5052507;28;20017;-46
2021/12/23 08:17:38;;;;;;;0.30;0.30;;;-1.80;99.90;;;;;;5051109;28;20116;-45
2021/12/23 08:20:05;;;;;;;0.00;0.00;;;-1.70;99.90;;;;;;5053268;28;20112;-46
2021/12/23 08:22:31;;;;;;;0.00;0.00;;;-1.60;99.90;;;;;;5056172;28;20036;-48
2021/12/23 08:24:56;;;;;;;0.00;0.00;;;-1.60;99.90;;;;;;5055761;28;20407;-49
2021/12/23 08:27:26;;;;;;;0.00;0.00;;;-1.40;99.90;;;;;;5055931;28;20048;-47
2021/12/23 08:29:51;;;;;;;6.13;1.08;;;-1.30;99.90;;;;;;5056390;28;20462;-49
2021/12/23 08:32:22;;;;;;;0.00;0.00;;;-1.20;99.90;;;;;;5055947;28;20100;-47
2021/12/23 08:34:47;;;;;;;0.00;0.00;;;-1.20;99.90;;;;;;5055637;28;20120;-48
2021/12/23 08:37:13;;;;;;;0.00;0.00;;;-0.90;99.90;;;;;;5055424;28;20468;-49
2021/12/23 08:39:41;;;;;;;0.00;0.00;;;-0.90;99.90;;;;;;5055839;28;20055;-50
2021/12/23 08:42:07;;;;;;;1.20;0.93;;;-0.80;99.90;;;;;;5055486;28;20013;-52
2021/12/23 08:44:33;;;;;;;1.17;1.08;;;-0.70;99.90;;;;;;5055542;28;20029;-48
2021/12/23 08:46:59;;;;;;;0.22;0.22;;;-0.60;99.90;;;;;;5055862;28;20028;-46
2021/12/23 08:49:25;;;;;;;0.10;0.10;;;-0.70;99.90;;;;;;5055231;28;20485;-48
2021/12/23 08:51:50;;;;;;;0.45;0.45;;;-0.70;99.90;;;;;;5055568;28;20064;-47
2021/12/23 08:54:16;;;;;;;0.25;0.25;;;-0.60;99.90;;;;;;5055510;28;20033;-48
2021/12/23 08:56:42;;;;;;;0.00;0.00;;;-0.50;99.90;;;;;;5054876;28;20025;-47
2021/12/23 08:59:08;;;;;;;0.00;0.00;;;-0.30;99.90;;;;;;5055113;28;20025;-46
2021/12/23 09:01:34;;;;;;;0.43;0.43;;;-0.30;99.90;;;;;;5055328;28;20490;-47
2021/12/23 09:03:59;;;;;;;0.00;0.00;;;-0.20;99.90;;;;;;5055514;28;20056;-46
2021/12/23 09:06:25;;;;;;;0.17;0.17;;;-0.20;99.90;;;;;;5054959;28;20454;-48
2021/12/23 09:08:53;;;;;;;0.60;0.43;;;-0.10;99.90;;;;;;5053912;28;20039;-47
2021/12/23 09:11:18;;;;;;;0.00;0.00;;;-0.10;99.90;;;;;;5055463;28;20025;-51
2021/12/23 09:13:44;;;;;;;0.20;0.20;;;0.00;99.90;;;;;;5053589;28;20025;-49
2021/12/23 09:16:10;;;;;;;0.32;0.32;;;0.10;99.90;;;;;;5055152;28;20091;-46
2021/12/23 09:18:36;;;;;;;6.82;5.15;;;0.00;99.90;;;;;;5054561;28;20047;-47
2021/12/23 09:21:01;;;;;;;1.52;0.90;;;-0.10;99.90;;;;;;5055265;28;20467;-47
2021/12/23 09:23:27;;;;;;;0.00;0.00;;;0.00;99.90;;;;;;5054395;28;20032;-48
2021/12/23 09:25:54;;;;;;;0.38;0.38;;;0.00;99.90;;;;;;5053359;28;20071;-48
2021/12/23 09:33:37;;;;;;;0.00;0.00;;;0.00;99.90;;;;;;5054340;28;20408;-46
2021/12/23 09:36:04;;;;;;;0.00;0.00;;;0.20;99.90;;;;;;5054211;28;20033;-48
2021/12/23 09:38:29;;;;;;;0.00;0.00;;;0.30;99.90;;;;;;5052811;28;20529;-49
2021/12/23 09:41:04;;;;;;;0.70;0.38;;;0.40;99.90;;;;;;5053033;28;20021;-50
2021/12/23 09:43:31;;;;;;;0.00;0.00;;;0.30;99.90;;;;;;5054070;28;20028;-50
2021/12/23 09:45:58;;;;;;;3.10;2.20;;;0.50;99.90;;;;;;5053983;28;20029;-50
2021/12/23 09:48:28;;;;;;;0.00;0.00;;;0.70;99.90;;;;;;5054341;28;20171;-52
2021/12/23 09:50:56;;;;;;;0.00;0.00;;;0.90;99.90;;;;;;5054477;28;20078;-50
2021/12/23 09:53:22;;;;;;;0.00;0.00;;;1.20;99.90;;;;;;5054228;28;20028;-50
2021/12/23 09:55:50;;;;;;;0.00;0.00;;;1.40;99.90;;;;;;5053979;28;20419;-49
2021/12/23 09:58:16;;;;;;;0.00;0.00;;;1.50;99.90;;;;;;5054060;28;20060;-47
2021/12/23 10:00:45;;;;;;;0.00;0.00;;;1.60;99.90;;;;;;5053864;28;20369;-47
2021/12/23 10:03:16;;;;;;;0.00;0.00;;;1.70;99.90;;;;;;5054066;28;20375;-48
2021/12/23 10:05:42;;;;;;;0.00;0.00;;;1.90;99.90;;;;;;5054201;28;20491;-46
2021/12/23 10:08:11;;;;;;;0.00;0.00;;;2.00;99.90;;;;;;5054431;28;20033;-48
2021/12/23 10:30:37;;;;;;;0.00;0.00;;;2.70;99.90;;;;;;5053446;28;20113;-48
2021/12/23 10:38:43;;;;;;;0.00;0.00;;;2.70;99.90;;;;;;5053331;28;20025;-47
2021/12/23 10:41:20;;;;;;;0.00;0.00;;;2.80;99.90;;;;;;5052704;28;20025;-48
2021/12/23 10:43:53;;;;;;;0.00;0.00;;;3.00;99.90;;;;;;5052104;28;20472;-50
2021/12/23 10:46:25;;;;;;;0.00;0.00;;;3.10;99.90;;;;;;5052845;28;20075;-48
2021/12/23 10:48:53;;;;;;;0.00;0.00;;;3.30;99.90;;;;;;5053372;28;20377;-47
2021/12/23 10:51:20;;;;;;;0.00;0.00;;;3.50;99.90;;;;;;5052974;28;20083;-47
2021/12/23 10:59:11;;;;;;;0.00;0.00;;;4.20;99.90;;;;;;5052441;28;20114;-49
2021/12/23 11:01:56;;;;;;;0.00;0.00;;;4.10;99.90;;;;;;5052493;28;20031;-48
2021/12/23 11:04:22;;;;;;;0.00;0.00;;;4.00;99.90;;;;;;5052934;28;20140;-47
2021/12/23 11:06:56;;;;;;;0.00;0.00;;;3.90;99.90;;;;;;5052392;28;20482;-49
2021/12/23 11:09:51;;;;;;;0.00;0.00;;;3.80;99.90;;;;;;5085093;28;20476;-49
2021/12/23 11:27:27;;;;;;;0.00;0.00;;;3.90;99.90;;;;;;5052330;28;20057;-50
2021/12/23 11:37:39;;;;;;;0.70;0.45;;;4.60;99.90;;;;;;5052415;28;20071;-48
2021/12/23 11:40:12;;;;;;;0.00;0.00;;;4.60;99.90;;;;;;5052420;28;20046;-48
2021/12/23 11:43:01;;;;;;;0.43;0.43;;;4.50;99.90;;;;;;5051109;28;20025;-48
2021/12/23 11:45:23;;;;;;;9.90;4.72;;;4.10;99.90;;;;;;5051652;28;20037;-52
2021/12/23 11:47:49;;;;;;;0.00;0.00;;;4.30;99.90;;;;;;5052476;28;20029;-49
2021/12/23 11:50:22;;;;;;;0.00;0.00;;;4.40;99.90;;;;;;5052523;28;20053;-47
2021/12/23 11:52:48;;;;;;;0.00;0.00;;;4.50;99.90;;;;;;5052025;28;20028;-48
2021/12/23 11:55:14;;;;;;;0.00;0.00;;;4.60;99.90;;;;;;5053891;28;20043;-47
2021/12/23 11:57:42;;;;;;;0.00;0.00;;;4.80;99.90;;;;;;5056154;28;20040;-49
2021/12/23 12:02:40;;;;;;;0.00;0.00;;;4.90;99.90;;;;;;5056344;28;20530;-47
2021/12/23 12:05:13;;;;;;;0.00;0.00;;;5.00;99.90;;;;;;5055815;28;20053;-48
2021/12/23 12:07:41;;;;;;;0.00;0.00;;;5.00;99.90;;;;;;5055938;28;20029;-47
2021/12/23 12:10:09;;;;;;;0.00;0.00;;;5.10;99.90;;;;;;5055667;28;20090;-48
2021/12/23 12:13:07;;;;;;;0.00;0.00;;;5.20;99.90;;;;;;5056277;28;20036;-47
2021/12/23 12:15:39;;;;;;;0.00;0.00;;;5.20;99.90;;;;;;5056059;28;20021;-49
2021/12/23 12:18:19;;;;;;;0.00;0.00;;;5.30;99.90;;;;;;5054532;28;20527;-45
2021/12/23 12:20:50;;;;;;;0.00;0.00;;;5.30;99.90;;;;;;5055480;28;20028;-48
2021/12/23 12:23:39;;;;;;;0.00;0.00;;;5.30;99.90;;;;;;5055484;28;20041;-49
2021/12/23 12:26:25;;;;;;;0.00;0.00;;;5.50;99.90;;;;;;5055490;28;20033;-48
2021/12/23 12:28:51;;;;;;;0.00;0.00;;;5.40;99.90;;;;;;5054422;28;20025;-49
2021/12/23 12:31:23;;;;;;;0.00;0.00;;;5.40;99.90;;;;;;5055832;28;20059;-50
2021/12/23 12:33:57;;;;;;;0.00;0.00;;;5.30;99.90;;;;;;5055565;28;20487;-49
2021/12/23 12:36:24;;;;;;;0.00;0.00;;;5.40;99.90;;;;;;5055590;28;20468;-48
2021/12/23 12:38:52;;;;;;;0.00;0.00;;;5.40;99.90;;;;;;5055732;28;20028;-48
2021/12/23 12:41:25;;;;;;;0.00;0.00;;;5.50;99.90;;;;;;5055778;28;20025;-49
2021/12/23 12:44:01;;;;;;;0.00;0.00;;;5.40;99.90;;;;;;5055462;28;20024;-51
2021/12/23 12:46:33;;;;;;;0.00;0.00;;;5.50;99.90;;;;;;5055475;28;20484;-48
2021/12/23 12:48:59;;;;;;;0.00;0.00;;;5.40;99.90;;;;;;5054245;28;20021;-51
2021/12/23 12:51:35;;;;;;;0.00;0.00;;;5.50;99.90;;;;;;5055417;28;20027;-52
2021/12/23 12:54:06;;;;;;;0.00;0.00;;;5.50;99.90;;;;;;5055231;28;20098;-48
2021/12/23 12:56:45;;;;;;;0.00;0.00;;;5.50;99.90;;;;;;5055153;28;20040;-48
2021/12/23 12:59:12;;;;;;;0.00;0.00;;;5.50;99.90;;;;;;5054948;28;20364;-50
2021/12/23 13:01:41;;;;;;;0.00;0.00;;;5.50;99.90;;;;;;5055106;28;20074;-51
2021/12/23 13:04:23;;;;;;;0.00;0.00;;;5.50;99.90;;;;;;5054371;28;20405;-50
2021/12/23 13:06:54;;;;;;;0.00;0.00;;;5.40;99.90;;;;;;5054212;28;20462;-46
2021/12/23 13:09:29;;;;;;;0.00;0.00;;;5.40;99.90;;;;;;5054870;28;20025;-49
2021/12/23 13:11:58;;;;;;;0.00;0.00;;;5.50;99.90;;;;;;5054822;28;20026;-47
2021/12/23 13:14:48;;;;;;;0.00;0.00;;;5.40;99.90;;;;;;5055208;28;20029;-50
2021/12/23 13:17:13;;;;;;;0.00;0.00;;;5.40;99.90;;;;;;5054885;28;20083;-50
2021/12/23 13:19:40;;;;;;;0.00;0.00;;;5.30;99.90;;;;;;5054101;28;20029;-46
2021/12/23 13:22:08;;;;;;;0.00;0.00;;;5.30;99.90;;;;;;5054747;28;20071;-49
2021/12/23 13:24:34;;;;;;;0.00;0.00;;;5.20;99.90;;;;;;5053145;28;20392;-51
2021/12/23 13:27:00;;;;;;;0.00;0.00;;;5.20;99.90;;;;;;5054847;28;20031;-51
2021/12/23 13:29:29;;;;;;;0.00;0.00;;;5.20;99.90;;;;;;5054657;28;20483;-46
2021/12/23 13:31:57;;;;;;;0.00;0.00;;;5.40;99.90;;;;;;5054300;28;20032;-46
2021/12/23 13:34:26;;;;;;;3.20;1.65;;;5.40;99.90;;;;;;5054706;28;20029;-47
2021/12/23 13:36:55;;;;;;;0.00;0.00;;;5.50;99.90;;;;;;5054722;28;20049;-47
2021/12/23 13:39:27;;;;;;;0.32;0.32;;;5.70;99.90;;;;;;5054588;28;20021;-49
2021/12/23 13:42:01;;;;;;;0.00;0.00;;;5.80;99.90;;;;;;5054144;28;20025;-46
2021/12/23 13:44:36;;;;;;;0.15;0.15;;;5.90;99.90;;;;;;5054182;28;20025;-50
2021/12/23 13:47:15;;;;;;;0.00;0.00;;;6.00;99.90;;;;;;5054537;28;20044;-49
2021/12/23 13:49:48;;;;;;;0.20;0.15;;;6.10;99.90;;;;;;5053247;28;20476;-48
2021/12/23 13:52:21;;;;;;;0.00;0.00;;;6.20;99.90;;;;;;5054440;28;20352;-52
2021/12/23 13:54:47;;;;;;;0.00;0.00;;;6.20;99.90;;;;;;5052804;28;20033;-50
2021/12/23 13:57:16;;;;;;;0.00;0.00;;;6.20;99.90;;;;;;5054358;28;20108;-50
2021/12/23 13:59:43;;;;;;;0.00;0.00;;;6.20;99.90;;;;;;5053860;28;20047;-47
2021/12/23 14:02:11;;;;;;;0.00;0.00;;;6.30;99.90;;;;;;5053769;28;20052;-49
2021/12/23 14:04:50;;;;;;;0.22;0.22;;;6.20;99.90;;;;;;5053680;28;20131;-48
2021/12/23 14:07:25;;;;;;;0.00;0.00;;;6.30;99.90;;;;;;5052727;28;20123;-50